Time;durP1;ratioP1;P1;durP2;ratioP2;P2;SDS_P1;SDS_P2;PMS_P1;PMS_P2;Temp;Humidity;BMP_temperature;BMP_pressure;BME280_temperature;BME280_humidity;BME280_pressure;Samples;Min_cycle;Max_cycle;Signal;HPM_P1;HPM_P2
2021/01/13 00:02:22;;;;;;;0.83;0.60;;;20.80;29.40;;;;;;5031568;28;20419;-59
2021/01/13 00:04:47;;;;;;;0.90;0.60;;;20.80;29.40;;;;;;5031626;28;20453;-59
2021/01/13 00:07:14;;;;;;;1.60;0.60;;;20.80;29.40;;;;;;5031171;28;20423;-59
2021/01/13 00:09:43;;;;;;;0.85;0.50;;;20.80;29.40;;;;;;5031631;28;20436;-59
2021/01/13 00:12:10;;;;;;;1.00;0.50;;;20.80;29.40;;;;;;5031477;28;20803;-59
2021/01/13 00:14:37;;;;;;;0.88;0.50;;;20.80;29.50;;;;;;5031454;28;20411;-59
2021/01/13 00:17:03;;;;;;;0.85;0.50;;;20.80;29.40;;;;;;5031254;28;20478;-59
2021/01/13 00:19:29;;;;;;;1.08;0.50;;;20.80;29.40;;;;;;5031155;28;20387;-59
2021/01/13 00:21:55;;;;;;;1.60;0.50;;;20.80;29.40;;;;;;5031334;28;20510;-59
2021/01/13 00:24:23;;;;;;;0.90;0.60;;;20.80;29.40;;;;;;5031382;28;20379;-59
2021/01/13 00:26:51;;;;;;;0.80;0.50;;;20.80;29.50;;;;;;5031473;28;20448;-59
2021/01/13 00:29:17;;;;;;;0.65;0.50;;;20.80;29.40;;;;;;5030751;28;20430;-59
2021/01/13 00:31:44;;;;;;;0.90;0.50;;;20.80;29.40;;;;;;5031409;28;20429;-59
2021/01/13 00:34:13;;;;;;;0.80;0.50;;;20.80;29.40;;;;;;5030521;28;20465;-59
2021/01/13 00:36:39;;;;;;;0.60;0.40;;;20.80;29.40;;;;;;5030489;28;20405;-59
2021/01/13 00:39:05;;;;;;;0.90;0.50;;;20.80;29.40;;;;;;5029704;28;20462;-59
2021/01/13 00:41:32;;;;;;;0.80;0.45;;;20.80;29.40;;;;;;5033627;28;20894;-59
2021/01/13 00:43:57;;;;;;;0.60;0.40;;;20.80;29.40;;;;;;5033978;28;20422;-59
2021/01/13 00:46:23;;;;;;;0.80;0.40;;;20.80;29.40;;;;;;5033939;28;20464;-59
2021/01/13 00:48:50;;;;;;;0.80;0.40;;;20.80;29.30;;;;;;5033624;28;20402;-59
2021/01/13 00:51:16;;;;;;;0.73;0.50;;;20.80;29.30;;;;;;5031822;28;20799;-59
2021/01/13 00:53:42;;;;;;;0.70;0.40;;;20.80;29.30;;;;;;5033960;28;20461;-59
2021/01/13 00:56:07;;;;;;;0.65;0.50;;;20.80;29.30;;;;;;5033784;28;20475;-59
2021/01/13 00:58:35;;;;;;;2.10;0.40;;;20.80;29.30;;;;;;5033737;28;20391;-59
2021/01/13 01:01:01;;;;;;;0.60;0.40;;;20.80;29.30;;;;;;5032313;28;20771;-59
2021/01/13 01:03:27;;;;;;;0.43;0.30;;;20.80;29.20;;;;;;5033151;28;20391;-59
2021/01/13 01:05:52;;;;;;;0.70;0.40;;;20.80;29.30;;;;;;5033463;28;20384;-59
2021/01/13 01:08:18;;;;;;;0.60;0.40;;;20.70;29.20;;;;;;5033581;28;20473;-59
2021/01/13 01:10:51;;;;;;;1.27;0.40;;;20.80;29.20;;;;;;5033514;28;20433;-59
2021/01/13 01:13:17;;;;;;;0.50;0.30;;;20.80;29.20;;;;;;5033113;28;20395;-59
2021/01/13 01:15:42;;;;;;;0.75;0.40;;;20.80;29.20;;;;;;5033425;28;20445;-59
2021/01/13 01:18:08;;;;;;;0.52;0.30;;;20.80;29.20;;;;;;5033421;28;20755;-59
2021/01/13 01:20:34;;;;;;;0.63;0.40;;;20.80;29.20;;;;;;5033259;28;20390;-59
2021/01/13 01:23:01;;;;;;;0.55;0.30;;;20.70;29.20;;;;;;5033253;28;20418;-59
2021/01/13 01:25:29;;;;;;;0.60;0.30;;;20.70;29.20;;;;;;5032678;28;20418;-59
2021/01/13 01:27:57;;;;;;;0.52;0.40;;;20.70;29.20;;;;;;5033228;28;20418;-59
2021/01/13 01:30:24;;;;;;;0.40;0.30;;;20.70;29.20;;;;;;5033031;28;20410;-59
2021/01/13 01:35:03;;;;;;;0.75;0.30;;;20.70;29.20;;;;;;5109472;27;20373;-59
2021/01/13 01:37:33;;;;;;;1.00;0.40;;;20.70;29.20;;;;;;5108332;28;20389;-60
2021/01/13 01:39:59;;;;;;;0.50;0.40;;;20.70;29.20;;;;;;5109071;28;20476;-59
2021/01/13 01:42:25;;;;;;;0.52;0.40;;;20.70;29.20;;;;;;5107734;28;20484;-59
2021/01/13 01:44:54;;;;;;;0.63;0.30;;;20.70;29.20;;;;;;5109250;28;20386;-59
2021/01/13 01:47:33;;;;;;;1.10;0.43;;;20.70;29.20;;;;;;5107555;28;20393;-59
2021/01/13 01:49:59;;;;;;;0.77;0.43;;;20.70;29.20;;;;;;5107830;28;20385;-59
2021/01/13 01:52:27;;;;;;;0.98;0.50;;;20.70;29.20;;;;;;5108174;28;20464;-59
2021/01/13 01:55:03;;;;;;;0.60;0.40;;;20.70;29.10;;;;;;5108970;28;20419;-60
2021/01/13 01:57:34;;;;;;;0.88;0.50;;;20.70;29.20;;;;;;5107086;28;20392;-59
2021/01/13 02:00:01;;;;;;;0.80;0.45;;;20.70;29.10;;;;;;5108888;28;20427;-59
2021/01/13 02:02:40;;;;;;;1.00;0.50;;;20.70;29.20;;;;;;5108854;28;20373;-59
2021/01/13 02:05:10;;;;;;;0.65;0.40;;;20.60;29.10;;;;;;5108792;28;20938;-59
2021/01/13 02:07:36;;;;;;;1.13;0.60;;;20.70;29.10;;;;;;5108120;28;20866;-59
2021/01/13 02:10:04;;;;;;;0.82;0.50;;;20.70;29.10;;;;;;5108741;28;20443;-59
2021/01/13 02:12:33;;;;;;;0.80;0.50;;;20.60;29.10;;;;;;5108574;28;20468;-60
2021/01/13 02:15:01;;;;;;;0.70;0.50;;;20.60;29.10;;;;;;5108589;28;20417;-59
2021/01/13 02:17:35;;;;;;;1.00;0.70;;;20.60;29.10;;;;;;5108002;28;20381;-59
2021/01/13 02:20:07;;;;;;;1.50;0.60;;;20.60;29.10;;;;;;5107352;28;20393;-59
2021/01/13 02:22:51;;;;;;;1.10;0.80;;;20.60;29.10;;;;;;5108275;28;20388;-59
2021/01/13 02:25:40;;;;;;;0.70;0.50;;;20.60;29.10;;;;;;5108059;28;20381;-59
2021/01/13 02:28:12;;;;;;;1.00;0.70;;;20.60;29.10;;;;;;5108428;28;20420;-60
2021/01/13 02:31:03;;;;;;;0.85;0.57;;;20.60;29.10;;;;;;5108040;28;20384;-59
2021/01/13 02:33:50;;;;;;;0.90;0.63;;;20.60;29.10;;;;;;5107588;28;20419;-59
2021/01/13 02:36:39;;;;;;;1.30;0.60;;;20.60;29.10;;;;;;5106869;28;20402;-59
2021/01/13 02:39:08;;;;;;;1.35;0.65;;;20.60;29.10;;;;;;5075718;28;20885;-59
2021/01/13 02:41:42;;;;;;;0.98;0.70;;;20.60;29.00;;;;;;5107592;28;20390;-59
2021/01/13 02:44:11;;;;;;;1.02;0.60;;;20.60;29.00;;;;;;5107986;28;20385;-60
2021/01/13 02:46:56;;;;;;;0.80;0.60;;;20.60;29.00;;;;;;5093922;28;20386;-59
2021/01/13 02:52:26;;;;;;;1.10;0.70;;;20.60;29.10;;;;;;5094453;28;20377;-59
2021/01/13 02:54:54;;;;;;;1.02;0.65;;;20.60;29.00;;;;;;5092944;28;20426;-60
2021/01/13 02:57:28;;;;;;;1.40;0.70;;;20.60;29.00;;;;;;5093841;28;20380;-59
2021/01/13 02:59:57;;;;;;;0.93;0.68;;;20.60;29.00;;;;;;5094184;28;20390;-59
2021/01/13 03:02:49;;;;;;;1.00;0.57;;;20.60;29.00;;;;;;5092794;28;20452;-60
2021/01/13 03:05:15;;;;;;;0.93;0.70;;;20.60;29.00;;;;;;5093900;28;20898;-60
2021/01/13 03:07:49;;;;;;;1.00;0.70;;;20.60;29.00;;;;;;5093843;28;20412;-60
2021/01/13 03:10:18;;;;;;;0.90;0.60;;;20.60;29.00;;;;;;5092664;28;20913;-59
2021/01/13 03:12:48;;;;;;;1.00;0.70;;;20.60;29.00;;;;;;5092636;28;20429;-59
2021/01/13 03:15:17;;;;;;;0.80;0.60;;;20.50;29.00;;;;;;5093649;28;20394;-60
2021/01/13 03:18:07;;;;;;;1.00;0.60;;;20.50;29.00;;;;;;5093903;28;20381;-59
2021/01/13 03:20:38;;;;;;;1.00;0.55;;;20.50;29.00;;;;;;5093591;28;20758;-59
2021/01/13 03:23:21;;;;;;;0.88;0.50;;;20.50;29.00;;;;;;5093793;28;20873;-59
2021/01/13 03:26:03;;;;;;;1.10;0.60;;;20.50;29.00;;;;;;5092471;28;20387;-59
2021/01/13 03:28:40;;;;;;;0.70;0.50;;;20.50;29.00;;;;;;5093653;28;20478;-60
2021/01/13 03:31:08;;;;;;;0.70;0.50;;;20.50;29.00;;;;;;5092352;28;20436;-59
2021/01/13 03:33:54;;;;;;;0.70;0.43;;;20.50;29.00;;;;;;5092839;28;20844;-59
2021/01/13 03:36:47;;;;;;;1.00;0.60;;;20.50;29.00;;;;;;5093420;28;20877;-59
2021/01/13 03:39:20;;;;;;;0.80;0.60;;;20.50;29.00;;;;;;5093256;28;20374;-59
2021/01/13 03:41:55;;;;;;;0.93;0.60;;;20.50;29.00;;;;;;5093441;28;20380;-59
2021/01/13 03:44:27;;;;;;;0.80;0.50;;;20.50;29.00;;;;;;5093317;28;20386;-59
2021/01/13 03:46:54;;;;;;;0.70;0.57;;;20.50;29.00;;;;;;5092077;28;20389;-59
2021/01/13 03:49:26;;;;;;;0.90;0.50;;;20.50;29.00;;;;;;5092739;28;20397;-59
2021/01/13 03:52:06;;;;;;;0.90;0.60;;;20.50;29.00;;;;;;5093225;28;20386;-59
2021/01/13 03:54:34;;;;;;;0.98;0.50;;;20.50;29.00;;;;;;5093100;28;20414;-59
2021/01/13 03:57:01;;;;;;;0.75;0.47;;;20.50;29.00;;;;;;5092096;28;20382;-59
2021/01/13 04:00:01;;;;;;;0.70;0.50;;;20.50;29.00;;;;;;5092537;28;20444;-59
2021/01/13 04:02:42;;;;;;;0.90;0.60;;;20.50;29.00;;;;;;5085214;28;20532;-59
2021/01/13 04:05:20;;;;;;;0.85;0.40;;;20.50;29.00;;;;;;5091697;28;20390;-59
2021/01/13 04:07:49;;;;;;;3.00;0.60;;;20.50;29.00;;;;;;5091447;28;20375;-59
2021/01/13 04:10:15;;;;;;;1.00;0.60;;;20.40;29.20;;;;;;5092829;28;20477;-59
2021/01/13 04:13:01;;;;;;;2.95;0.50;;;20.40;29.20;;;;;;5092711;28;20465;-59
2021/01/13 04:15:37;;;;;;;0.80;0.40;;;20.40;29.30;;;;;;5092297;28;20397;-59
2021/01/13 04:18:05;;;;;;;2.08;0.50;;;20.40;29.30;;;;;;5092446;28;20389;-60
2021/01/13 04:20:31;;;;;;;1.97;0.50;;;20.40;29.40;;;;;;5090760;28;20898;-60
2021/01/13 04:22:57;;;;;;;2.95;0.70;;;20.50;30.00;;;;;;5092169;28;20428;-59
2021/01/13 04:25:23;;;;;;;0.80;0.50;;;20.50;30.10;;;;;;5091026;28;20390;-59
2021/01/13 04:27:49;;;;;;;1.10;0.57;;;20.60;30.00;;;;;;5091735;28;20382;-59
2021/01/13 04:30:16;;;;;;;0.98;0.70;;;20.60;29.70;;;;;;5092481;28;20389;-59
2021/01/13 04:32:42;;;;;;;0.88;0.50;;;20.60;30.10;;;;;;5091431;28;20878;-60
2021/01/13 04:35:08;;;;;;;2.67;0.60;;;20.60;30.80;;;;;;5091815;28;20443;-59
2021/01/13 04:37:35;;;;;;;1.70;0.50;;;20.60;30.80;;;;;;5090592;28;20386;-59
2021/01/13 04:40:21;;;;;;;2.17;0.50;;;20.70;30.90;;;;;;5092454;28;20386;-59
2021/01/13 04:43:07;;;;;;;2.08;0.60;;;20.70;30.90;;;;;;5092195;28;20391;-59
2021/01/13 04:45:47;;;;;;;1.15;0.50;;;20.70;31.00;;;;;;5091770;28;20378;-60
2021/01/13 04:48:20;;;;;;;2.53;0.60;;;20.70;30.90;;;;;;5092155;28;20843;-59
2021/01/13 04:50:50;;;;;;;4.57;0.43;;;20.70;31.10;;;;;;5092140;28;20386;-59
2021/01/13 04:53:21;;;;;;;2.28;0.50;;;20.80;30.60;;;;;;5091840;28;20409;-59
2021/01/13 04:55:49;;;;;;;1.75;0.50;;;20.70;30.80;;;;;;5091820;28;20428;-59
2021/01/13 04:58:40;;;;;;;3.63;0.50;;;20.80;31.30;;;;;;5092214;28;20393;-59
2021/01/13 05:01:33;;;;;;;2.53;0.50;;;20.80;31.60;;;;;;5073016;28;20469;-59
2021/01/13 05:04:22;;;;;;;3.37;0.50;;;20.70;30.30;;;;;;5091970;28;20900;-59
2021/01/13 05:07:00;;;;;;;2.03;0.60;;;20.60;30.00;;;;;;5091851;28;20419;-60
2021/01/13 05:09:41;;;;;;;4.60;0.60;;;20.60;30.10;;;;;;5091088;28;20433;-59
2021/01/13 05:12:08;;;;;;;2.15;0.50;;;20.50;30.10;;;;;;5091838;28;20378;-59
2021/01/13 05:14:43;;;;;;;1.80;0.50;;;20.50;30.30;;;;;;5091618;28;20976;-59
2021/01/13 05:17:38;;;;;;;3.85;0.60;;;20.60;30.00;;;;;;5091755;28;20789;-59
2021/01/13 05:20:07;;;;;;;3.53;0.60;;;20.50;30.30;;;;;;5091227;28;20394;-59
2021/01/13 05:22:34;;;;;;;5.28;0.63;;;20.50;30.40;;;;;;5091650;28;20393;-60
2021/01/13 05:25:43;;;;;;;2.83;0.50;;;20.50;30.40;;;;;;5091627;28;20870;-59
2021/01/13 05:28:10;;;;;;;1.98;0.60;;;20.50;30.40;;;;;;5091174;28;20447;-59
2021/01/13 05:30:42;;;;;;;1.73;0.50;;;20.50;30.20;;;;;;5091529;28;20392;-59
2021/01/13 05:33:13;;;;;;;1.20;0.50;;;20.50;30.10;;;;;;5091319;28;20834;-59
2021/01/13 05:35:41;;;;;;;2.17;0.47;;;20.40;30.00;;;;;;5091020;28;20393;-59
2021/01/13 05:38:18;;;;;;;2.35;0.50;;;20.50;30.10;;;;;;5091417;28;20858;-59
2021/01/13 05:40:50;;;;;;;2.28;0.50;;;20.40;30.00;;;;;;5090233;28;20470;-59
2021/01/13 05:43:18;;;;;;;2.58;0.50;;;20.50;30.00;;;;;;5091046;28;20469;-59
2021/01/13 05:45:44;;;;;;;2.47;0.60;;;20.50;29.90;;;;;;5090677;28;21074;-59
2021/01/13 05:48:15;;;;;;;2.42;0.40;;;20.50;29.90;;;;;;5091289;28;20378;-59
2021/01/13 05:50:42;;;;;;;3.13;0.40;;;20.50;29.80;;;;;;5091336;28;20386;-59
2021/01/13 05:53:08;;;;;;;2.45;0.50;;;20.50;29.60;;;;;;5091369;28;20406;-59
2021/01/13 05:55:34;;;;;;;1.60;0.40;;;20.60;29.70;;;;;;5090671;28;20416;-60
2021/01/13 05:58:02;;;;;;;1.02;0.40;;;20.50;29.60;;;;;;5090044;28;20425;-59
2021/01/13 06:00:30;;;;;;;1.83;0.50;;;20.50;29.60;;;;;;5091247;28;20439;-59
2021/01/13 06:03:00;;;;;;;2.03;0.60;;;20.50;29.60;;;;;;5091537;28;20433;-61
2021/01/13 06:05:28;;;;;;;1.33;0.60;;;20.50;29.70;;;;;;5106760;28;20376;-59
2021/01/13 06:07:59;;;;;;;1.70;0.50;;;20.50;30.10;;;;;;5110364;28;20414;-60
2021/01/13 06:10:32;;;;;;;2.15;0.50;;;20.40;29.70;;;;;;5110629;28;20385;-59
2021/01/13 06:12:59;;;;;;;1.75;0.47;;;20.50;29.70;;;;;;5111062;28;20876;-60
2021/01/13 06:15:26;;;;;;;2.22;0.50;;;20.40;29.60;;;;;;5110806;28;20381;-59
2021/01/13 06:17:54;;;;;;;2.40;0.47;;;20.40;29.60;;;;;;5111137;28;20393;-59
2021/01/13 06:20:31;;;;;;;1.30;0.50;;;20.40;29.60;;;;;;5112598;28;20395;-59
2021/01/13 06:22:58;;;;;;;1.27;0.50;;;20.40;29.60;;;;;;5115431;28;20940;-59
2021/01/13 06:25:28;;;;;;;1.10;0.50;;;20.40;29.60;;;;;;5114885;28;20914;-60
2021/01/13 06:27:57;;;;;;;1.13;0.40;;;20.40;29.60;;;;;;5115343;27;20392;-59
2021/01/13 06:30:37;;;;;;;1.20;0.50;;;20.40;29.50;;;;;;5098055;28;20427;-59
2021/01/13 06:33:32;;;;;;;2.47;0.80;;;20.40;29.50;;;;;;5097232;28;21122;-63
2021/01/13 06:36:07;;;;;;;2.00;0.93;;;20.40;29.60;;;;;;5102358;28;20816;-60
2021/01/13 06:38:43;;;;;;;2.60;0.98;;;20.50;29.30;;;;;;5101892;28;20392;-59
2021/01/13 06:41:10;;;;;;;2.83;1.03;;;20.50;29.70;;;;;;5106539;28;20485;-59
2021/01/13 06:43:36;;;;;;;2.13;0.80;;;20.50;30.10;;;;;;5085827;28;20392;-59
2021/01/13 06:46:01;;;;;;;3.03;0.90;;;20.40;30.00;;;;;;5091051;28;20889;-59
2021/01/13 06:48:29;;;;;;;2.20;0.80;;;20.40;30.10;;;;;;5093130;28;20885;-60
2021/01/13 06:50:59;;;;;;;2.28;0.90;;;20.40;30.20;;;;;;5093891;28;20415;-60
2021/01/13 06:53:35;;;;;;;2.20;1.10;;;20.50;30.30;;;;;;5093902;28;20406;-59
2021/01/13 06:56:09;;;;;;;2.55;1.05;;;20.40;30.20;;;;;;5094262;28;20390;-59
2021/01/13 06:58:37;;;;;;;1.65;1.10;;;20.40;30.10;;;;;;5094551;28;20836;-62
2021/01/13 07:01:04;;;;;;;3.05;1.25;;;20.40;30.00;;;;;;5090835;28;20398;-59
2021/01/13 07:03:34;;;;;;;2.40;1.20;;;20.40;30.00;;;;;;5091752;28;20389;-78
2021/01/13 07:06:09;;;;;;;3.00;1.20;;;20.40;30.00;;;;;;5092837;28;20390;-62
2021/01/13 07:08:35;;;;;;;2.25;1.40;;;20.40;30.00;;;;;;5094043;28;20478;-61
2021/01/13 07:11:09;;;;;;;2.72;1.67;;;20.40;29.90;;;;;;5093982;28;20397;-60
2021/01/13 07:13:47;;;;;;;2.38;1.52;;;20.40;30.30;;;;;;5093109;28;20410;-61
2021/01/13 07:16:14;;;;;;;2.88;1.70;;;20.40;29.80;;;;;;5093582;28;20378;-60
2021/01/13 07:18:40;;;;;;;2.90;1.75;;;20.40;29.80;;;;;;5093964;28;20390;-61
2021/01/13 07:21:10;;;;;;;3.30;1.70;;;20.40;29.70;;;;;;5093943;28;20412;-60
2021/01/13 07:23:46;;;;;;;3.10;1.85;;;20.40;29.70;;;;;;5093337;28;20892;-60
2021/01/13 07:26:13;;;;;;;2.25;1.60;;;20.40;29.70;;;;;;5093917;28;20386;-62
2021/01/13 07:28:40;;;;;;;2.55;1.65;;;20.40;29.70;;;;;;5093617;28;20414;-59
2021/01/13 07:31:07;;;;;;;2.40;1.65;;;20.40;29.60;;;;;;5093544;28;20394;-59
2021/01/13 07:33:40;;;;;;;2.30;1.60;;;20.40;29.60;;;;;;5092985;28;20449;-60
2021/01/13 07:36:09;;;;;;;1.75;1.42;;;20.40;29.60;;;;;;5093681;28;20402;-59
2021/01/13 07:38:36;;;;;;;2.40;1.67;;;20.40;29.60;;;;;;5093259;28;20390;-59
2021/01/13 07:41:07;;;;;;;2.53;1.60;;;20.40;29.60;;;;;;5093427;28;20394;-59
2021/01/13 07:43:51;;;;;;;2.33;1.50;;;20.40;30.00;;;;;;5091606;28;20746;-59
2021/01/13 07:46:26;;;;;;;2.37;1.60;;;20.30;29.50;;;;;;5092048;28;20391;-59
2021/01/13 07:49:07;;;;;;;2.67;1.77;;;20.30;29.40;;;;;;5093210;28;20386;-60
2021/01/13 07:52:05;;;;;;;2.50;1.50;;;20.30;29.40;;;;;;5092728;28;20465;-59
2021/01/13 07:54:33;;;;;;;2.20;1.58;;;20.30;29.40;;;;;;5092945;28;20410;-59
2021/01/13 07:57:00;;;;;;;2.08;1.60;;;20.30;29.40;;;;;;5093110;28;20436;-59
2021/01/13 07:59:36;;;;;;;2.60;1.60;;;20.30;29.40;;;;;;5092094;28;20394;-59
2021/01/13 08:02:39;;;;;;;2.00;1.40;;;20.30;29.40;;;;;;5092940;28;20390;-59
2021/01/13 08:05:21;;;;;;;1.83;1.40;;;20.30;29.40;;;;;;5050297;28;20400;-59
2021/01/13 08:08:04;;;;;;;2.50;1.58;;;20.30;29.30;;;;;;5087847;28;20409;-59
2021/01/13 08:10:34;;;;;;;2.23;1.50;;;20.30;29.30;;;;;;5092734;28;20438;-59
2021/01/13 08:13:24;;;;;;;1.85;1.30;;;20.30;29.30;;;;;;5092706;28;20405;-64
2021/01/13 08:16:35;;;;;;;2.05;1.63;;;20.30;29.30;;;;;;5092595;28;20474;-59
2021/01/13 08:19:09;;;;;;;1.90;1.40;;;20.30;29.30;;;;;;5069385;28;20418;-59
2021/01/13 08:22:00;;;;;;;2.22;1.20;;;20.30;29.30;;;;;;5092154;28;20440;-59
2021/01/13 08:24:30;;;;;;;1.90;1.40;;;20.30;29.30;;;;;;5092429;28;20802;-59
2021/01/13 08:27:00;;;;;;;2.20;1.47;;;20.30;29.30;;;;;;5092636;28;20393;-60
2021/01/13 08:29:33;;;;;;;1.90;1.30;;;20.30;29.30;;;;;;5092365;28;20393;-59
2021/01/13 08:32:07;;;;;;;2.33;1.35;;;20.30;29.30;;;;;;5092481;28;20469;-59
2021/01/13 08:35:01;;;;;;;1.75;1.35;;;20.30;29.20;;;;;;5092161;28;20453;-59
2021/01/13 08:37:32;;;;;;;1.63;1.20;;;20.30;29.20;;;;;;5090734;28;20477;-59
2021/01/13 08:39:58;;;;;;;1.83;1.20;;;20.30;29.20;;;;;;5092331;28;20443;-59
2021/01/13 08:42:26;;;;;;;1.88;1.30;;;20.30;29.20;;;;;;5091863;28;20374;-59
2021/01/13 08:44:54;;;;;;;1.50;1.10;;;20.30;29.20;;;;;;5091511;28;20408;-60
2021/01/13 08:47:21;;;;;;;2.03;1.33;;;20.30;29.10;;;;;;5092010;28;20378;-59
2021/01/13 08:49:47;;;;;;;1.95;1.20;;;20.30;29.10;;;;;;5090571;28;20409;-63
2021/01/13 08:52:24;;;;;;;2.10;1.40;;;20.30;29.20;;;;;;5092318;28;20405;-59
2021/01/13 08:54:56;;;;;;;1.80;1.30;;;20.30;29.10;;;;;;5091875;28;20468;-59
2021/01/13 08:57:23;;;;;;;2.17;1.30;;;20.20;29.10;;;;;;5090633;28;20401;-60
2021/01/13 08:59:49;;;;;;;1.75;1.33;;;20.30;29.10;;;;;;5091164;28;20806;-60
2021/01/13 09:02:17;;;;;;;1.90;1.00;;;20.30;29.10;;;;;;5091990;28;20378;-59
2021/01/13 09:04:47;;;;;;;1.50;1.20;;;20.30;29.10;;;;;;5091921;28;20394;-59
2021/01/13 09:07:14;;;;;;;1.70;1.20;;;20.30;29.10;;;;;;5090608;28;20393;-59
2021/01/13 09:10:05;;;;;;;1.60;1.10;;;20.30;29.10;;;;;;5090966;28;20398;-59
2021/01/13 09:12:44;;;;;;;2.00;1.15;;;20.20;29.10;;;;;;5081982;28;20386;-60
2021/01/13 09:15:13;;;;;;;1.63;1.10;;;20.20;29.10;;;;;;5091598;28;20405;-59
2021/01/13 09:17:40;;;;;;;1.60;1.02;;;20.30;29.10;;;;;;5091145;28;20410;-59
2021/01/13 09:20:35;;;;;;;1.20;0.90;;;20.30;29.10;;;;;;5091728;28;20943;-59
2021/01/13 09:23:04;;;;;;;1.80;1.05;;;20.40;29.10;;;;;;5090987;28;20871;-59
2021/01/13 09:25:32;;;;;;;1.67;1.00;;;20.40;29.00;;;;;;5091240;28;20398;-59
2021/01/13 09:28:13;;;;;;;1.42;1.05;;;20.40;29.00;;;;;;5091153;28;20464;-60
2021/01/13 09:30:41;;;;;;;1.83;1.20;;;20.50;28.90;;;;;;5090976;28;20833;-59
2021/01/13 09:33:14;;;;;;;1.80;1.10;;;20.50;28.90;;;;;;5089257;28;20409;-59
2021/01/13 09:35:42;;;;;;;1.67;1.00;;;20.50;28.80;;;;;;5090946;28;20398;-60
2021/01/13 09:38:11;;;;;;;1.42;1.00;;;20.50;28.80;;;;;;5091337;28;20388;-59
2021/01/13 09:40:51;;;;;;;1.40;0.90;;;20.50;28.70;;;;;;5091319;28;20421;-59
2021/01/13 09:43:32;;;;;;;1.77;1.00;;;20.50;28.70;;;;;;5091038;28;20443;-60
2021/01/13 09:46:19;;;;;;;1.50;1.00;;;20.50;28.70;;;;;;5091297;28;20374;-59
2021/01/13 09:49:02;;;;;;;1.70;1.20;;;20.50;28.70;;;;;;5091163;28;20447;-59
2021/01/13 09:51:29;;;;;;;1.50;0.90;;;20.50;28.70;;;;;;5091401;28;20382;-59
2021/01/13 09:53:57;;;;;;;1.60;1.00;;;20.50;28.70;;;;;;5090755;28;20456;-59
2021/01/13 09:56:25;;;;;;;1.90;1.00;;;20.50;28.70;;;;;;5094285;28;20427;-59
2021/01/13 09:58:52;;;;;;;2.33;1.00;;;20.60;28.70;;;;;;5095393;28;20374;-59
2021/01/13 10:01:35;;;;;;;1.70;0.97;;;20.60;28.70;;;;;;5095404;28;20390;-59
2021/01/13 10:04:08;;;;;;;1.90;0.90;;;20.60;28.60;;;;;;5095040;28;20861;-59
2021/01/13 10:06:42;;;;;;;1.45;0.90;;;20.60;28.60;;;;;;5095172;28;20382;-59
2021/01/13 10:09:10;;;;;;;2.25;1.00;;;20.60;28.60;;;;;;5093935;28;20428;-60
2021/01/13 10:11:36;;;;;;;1.48;1.00;;;20.60;28.60;;;;;;5094731;28;20403;-60
2021/01/13 10:14:04;;;;;;;2.60;1.10;;;20.60;28.50;;;;;;5094832;28;20413;-60
2021/01/13 10:16:30;;;;;;;1.85;1.05;;;20.70;28.50;;;;;;5094944;28;20431;-59
2021/01/13 10:18:58;;;;;;;1.50;1.00;;;20.70;28.50;;;;;;5094963;28;20425;-59
2021/01/13 10:21:33;;;;;;;2.25;1.00;;;20.70;28.50;;;;;;5094975;28;20420;-59
2021/01/13 10:24:04;;;;;;;1.45;0.88;;;20.70;28.50;;;;;;5094674;28;20481;-61
2021/01/13 10:26:38;;;;;;;2.15;1.20;;;20.70;28.50;;;;;;5094789;28;20942;-61
2021/01/13 10:29:05;;;;;;;1.45;0.90;;;20.70;28.50;;;;;;5094370;28;20393;-59
2021/01/13 10:31:32;;;;;;;1.67;0.90;;;20.70;28.50;;;;;;5094137;28;20385;-60
2021/01/13 10:33:58;;;;;;;1.98;0.90;;;20.70;28.40;;;;;;5094269;28;20456;-59
2021/01/13 10:36:34;;;;;;;1.88;1.00;;;20.70;28.40;;;;;;5094527;28;20382;-59
2021/01/13 10:39:11;;;;;;;1.60;0.90;;;20.70;28.40;;;;;;5094635;28;20418;-59
2021/01/13 10:41:38;;;;;;;1.80;0.90;;;20.70;28.40;;;;;;5094207;28;20450;-60
2021/01/13 10:44:14;;;;;;;1.70;0.88;;;20.70;28.50;;;;;;5094006;28;20428;-59
2021/01/13 10:46:57;;;;;;;1.73;0.90;;;20.70;28.50;;;;;;5094020;28;20374;-59
2021/01/13 10:49:36;;;;;;;1.50;0.80;;;20.70;28.50;;;;;;5094704;28;20731;-59
2021/01/13 10:52:15;;;;;;;1.08;0.70;;;20.60;28.40;;;;;;5094270;28;20385;-59
2021/01/13 10:54:46;;;;;;;1.60;0.90;;;20.60;28.50;;;;;;5094273;28;21027;-59
2021/01/13 10:57:13;;;;;;;1.35;0.82;;;20.60;28.50;;;;;;5094403;28;20386;-59
2021/01/13 10:59:41;;;;;;;1.15;0.77;;;20.60;28.50;;;;;;5094005;28;20382;-59
2021/01/13 11:02:14;;;;;;;1.35;0.80;;;20.60;28.50;;;;;;5094210;28;20381;-59
2021/01/13 11:04:46;;;;;;;1.70;0.80;;;20.60;28.50;;;;;;5094095;28;20462;-59
2021/01/13 11:07:17;;;;;;;1.30;0.70;;;20.70;28.50;;;;;;5093588;28;20383;-59
2021/01/13 11:09:47;;;;;;;1.58;0.80;;;20.60;28.40;;;;;;5093849;28;20385;-59
2021/01/13 11:12:20;;;;;;;1.83;0.82;;;20.60;28.40;;;;;;5094032;28;20374;-59
2021/01/13 11:14:48;;;;;;;1.50;0.80;;;20.60;28.50;;;;;;5093901;28;20446;-59
2021/01/13 11:17:35;;;;;;;1.58;0.80;;;20.60;28.50;;;;;;5093963;28;20378;-59
2021/01/13 11:20:02;;;;;;;1.65;0.80;;;20.60;28.50;;;;;;5093571;28;20424;-59
2021/01/13 11:22:44;;;;;;;1.35;0.70;;;20.60;28.50;;;;;;5093931;28;20370;-59
2021/01/13 11:25:39;;;;;;;1.35;0.80;;;20.60;28.50;;;;;;5093872;28;20394;-59
2021/01/13 11:28:13;;;;;;;1.38;0.80;;;20.60;28.40;;;;;;5093532;28;20378;-59
2021/01/13 11:30:44;;;;;;;1.02;0.60;;;20.60;28.40;;;;;;5093736;28;20822;-60
2021/01/13 11:33:12;;;;;;;1.75;0.75;;;20.70;28.50;;;;;;5093367;28;20452;-59
2021/01/13 11:35:40;;;;;;;1.65;0.73;;;20.70;28.50;;;;;;5093190;28;20932;-59
2021/01/13 11:38:19;;;;;;;1.55;0.80;;;20.60;28.40;;;;;;5091935;28;20413;-59
2021/01/13 11:41:13;;;;;;;1.35;0.70;;;20.70;28.50;;;;;;5089074;28;20387;-60
2021/01/13 11:44:00;;;;;;;1.50;0.70;;;20.60;28.50;;;;;;5092915;28;20374;-59
2021/01/13 11:46:35;;;;;;;1.23;0.63;;;20.60;28.50;;;;;;5092855;28;20386;-59
2021/01/13 11:49:25;;;;;;;1.33;0.70;;;20.60;28.40;;;;;;5090597;28;20750;-59
2021/01/13 11:51:53;;;;;;;1.10;0.70;;;20.60;28.40;;;;;;5092810;28;20707;-60
2021/01/13 11:54:30;;;;;;;1.85;0.77;;;20.70;28.40;;;;;;5093181;28;20974;-60
2021/01/13 11:57:16;;;;;;;1.40;0.80;;;20.70;28.40;;;;;;5090939;28;20428;-59
2021/01/13 11:59:42;;;;;;;1.25;0.60;;;20.70;28.40;;;;;;5072770;28;20474;-60
2021/01/13 12:02:21;;;;;;;1.67;0.70;;;20.70;28.40;;;;;;5072999;28;20484;-59
2021/01/13 12:04:48;;;;;;;1.20;0.60;;;20.70;28.40;;;;;;5072836;28;20400;-59
2021/01/13 12:07:14;;;;;;;1.30;0.60;;;20.70;28.40;;;;;;5072820;28;20388;-59
2021/01/13 12:09:40;;;;;;;1.70;0.65;;;20.70;28.40;;;;;;5072285;28;20740;-59
2021/01/13 12:12:06;;;;;;;1.10;0.60;;;20.80;28.40;;;;;;5072321;28;20441;-59
2021/01/13 12:14:42;;;;;;;1.50;0.70;;;20.80;28.40;;;;;;5072556;28;20953;-59
2021/01/13 12:17:08;;;;;;;1.73;0.70;;;20.80;28.40;;;;;;5072184;28;20388;-59
2021/01/13 12:19:41;;;;;;;1.38;0.60;;;20.80;28.30;;;;;;5089274;28;20386;-77
2021/01/13 12:22:08;;;;;;;1.20;0.53;;;20.80;28.30;;;;;;5092453;28;20390;-60
2021/01/13 12:24:42;;;;;;;1.10;0.55;;;20.80;28.30;;;;;;5092228;28;20394;-65
2021/01/13 12:27:25;;;;;;;0.90;0.60;;;20.80;28.30;;;;;;5090307;28;20410;-60
2021/01/13 12:30:08;;;;;;;1.50;0.70;;;20.80;28.30;;;;;;5094257;28;20385;-61
2021/01/13 12:32:35;;;;;;;1.10;0.60;;;20.80;28.30;;;;;;5099762;28;20389;-60
2021/01/13 12:35:00;;;;;;;1.25;0.65;;;20.80;28.30;;;;;;5101366;28;20476;-60
2021/01/13 12:37:26;;;;;;;1.10;0.63;;;20.80;28.30;;;;;;5099313;28;20981;-60
2021/01/13 12:39:58;;;;;;;1.25;0.60;;;20.80;28.30;;;;;;5091755;28;20724;-59
2021/01/13 12:42:33;;;;;;;1.33;0.75;;;20.90;28.20;;;;;;5099079;28;20751;-60
2021/01/13 12:44:59;;;;;;;1.10;0.60;;;20.90;28.20;;;;;;5092321;28;20389;-60
2021/01/13 12:47:26;;;;;;;1.00;0.50;;;20.90;28.20;;;;;;5085154;28;20479;-60
2021/01/13 12:49:52;;;;;;;1.70;0.57;;;20.90;28.20;;;;;;5071414;28;20941;-60
2021/01/13 12:52:18;;;;;;;1.00;0.50;;;20.90;28.20;;;;;;5071848;28;20388;-59
2021/01/13 12:54:44;;;;;;;1.90;0.70;;;20.80;28.10;;;;;;5071671;28;20414;-59
2021/01/13 12:57:10;;;;;;;0.90;0.60;;;20.80;28.20;;;;;;5071701;28;20387;-60
2021/01/13 12:59:36;;;;;;;1.10;0.60;;;20.80;28.20;;;;;;5071721;28;20396;-59
2021/01/13 13:02:01;;;;;;;1.35;0.60;;;20.80;28.20;;;;;;5071291;28;20391;-59
2021/01/13 13:04:27;;;;;;;0.93;0.50;;;20.80;28.10;;;;;;5071596;28;20868;-59
2021/01/13 13:06:52;;;;;;;1.13;0.60;;;20.80;28.20;;;;;;5071664;28;20864;-60
2021/01/13 13:09:18;;;;;;;1.10;0.60;;;20.80;28.20;;;;;;5071751;28;20426;-60
2021/01/13 13:11:44;;;;;;;1.00;0.60;;;20.70;28.20;;;;;;5071377;28;20413;-60
2021/01/13 13:14:13;;;;;;;1.00;0.50;;;20.80;28.20;;;;;;5070821;28;20407;-60
2021/01/13 13:16:43;;;;;;;0.93;0.60;;;20.80;28.20;;;;;;5070837;28;20388;-59
2021/01/13 13:19:09;;;;;;;1.30;0.57;;;20.80;28.20;;;;;;5073973;28;20396;-60
2021/01/13 13:21:35;;;;;;;1.20;0.50;;;20.80;28.20;;;;;;5079262;28;20387;-60